Time;durP1;ratioP1;P1;durP2;ratioP2;P2;SDS_P1;SDS_P2;PMS_P1;PMS_P2;Temp;Humidity;BMP_temperature;BMP_pressure;BME280_temperature;BME280_humidity;BME280_pressure;Samples;Min_cycle;Max_cycle;Signal;HPM_P1;HPM_P2
2023/01/28 10:13:14;;;;;;;22.33;20.63;;;4.50;99.90;;;;;;6273794;22;1256484;-86
2023/01/28 10:15:54;;;;;;;26.07;23.37;;;5.30;99.90;;;;;;6279733;22;20207;-86
2023/01/28 10:18:33;;;;;;;24.07;21.97;;;5.00;99.90;;;;;;6279731;22;20421;-85
2023/01/28 10:21:07;;;;;;;22.60;20.70;;;4.80;99.90;;;;;;6279041;22;21121;-87
2023/01/28 10:23:44;;;;;;;22.13;20.47;;;4.80;99.90;;;;;;6279477;22;20410;-87
2023/01/28 10:26:21;;;;;;;23.27;21.13;;;4.90;99.90;;;;;;6279556;22;20475;-85
2023/01/28 10:28:54;;;;;;;22.47;20.53;;;4.70;99.90;;;;;;6279044;22;20460;-86
2023/01/28 10:31:22;;;;;;;22.40;20.57;;;4.70;99.90;;;;;;6279392;22;20453;-86
2023/01/28 10:33:49;;;;;;;25.40;23.20;;;4.70;99.90;;;;;;6279243;22;20414;-84
2023/01/28 10:36:17;;;;;;;23.33;21.30;;;4.60;99.90;;;;;;6279047;22;20410;-86
2023/01/28 10:38:44;;;;;;;22.53;20.53;;;4.70;99.90;;;;;;6279609;22;20441;-86
2023/01/28 10:41:12;;;;;;;26.77;21.37;;;4.90;99.90;;;;;;6279524;22;20406;-87
2023/01/28 10:43:41;;;;;;;23.37;21.30;;;4.90;99.90;;;;;;6279809;22;20468;-87
2023/01/28 10:46:12;;;;;;;24.43;22.07;;;4.90;99.90;;;;;;6279621;22;20413;-88
2023/01/28 10:48:44;;;;;;;25.03;22.77;;;5.00;99.90;;;;;;6279666;22;20425;-88
2023/01/28 10:51:10;;;;;;;24.33;22.53;;;5.00;99.90;;;;;;6279546;22;20446;-87
2023/01/28 10:53:39;;;;;;;23.70;21.73;;;5.10;99.90;;;;;;6279533;22;20414;-89
2023/01/28 10:56:08;;;;;;;24.73;22.63;;;5.30;99.90;;;;;;6280511;22;20705;-89
2023/01/28 10:58:46;;;;;;;25.50;23.20;;;5.30;99.90;;;;;;6279937;22;20445;-88
2023/01/28 11:01:14;;;;;;;24.03;21.73;;;5.40;99.90;;;;;;6280559;22;20405;-90
2023/01/28 11:03:55;;;;;;;23.03;21.13;;;5.30;99.90;;;;;;6280247;22;20403;-89
2023/01/28 11:06:27;;;;;;;24.20;22.10;;;5.30;99.90;;;;;;6280274;22;20505;-89
2023/01/28 11:08:53;;;;;;;24.97;22.37;;;5.30;99.90;;;;;;6280276;22;20410;-88
2023/01/28 11:11:25;;;;;;;24.00;21.80;;;5.40;99.90;;;;;;6278800;22;20442;-89
2023/01/28 11:13:53;;;;;;;24.00;21.80;;;5.40;99.90;;;;;;6272515;22;20553;-87
2023/01/28 11:16:21;;;;;;;24.23;21.77;;;5.20;99.90;;;;;;6272034;22;20406;-86
2023/01/28 11:18:52;;;;;;;23.33;21.03;;;5.10;99.90;;;;;;6272270;22;20407;-87
2023/01/28 11:21:21;;;;;;;22.20;20.40;;;5.00;99.90;;;;;;6271841;22;20422;-88
2023/01/28 11:23:51;;;;;;;23.13;21.33;;;4.80;99.90;;;;;;6272838;22;20473;-88
2023/01/28 11:26:21;;;;;;;24.03;21.60;;;4.80;99.90;;;;;;6272628;22;20414;-86
2023/01/28 11:28:48;;;;;;;24.87;22.60;;;4.70;99.90;;;;;;6272418;22;20410;-85
2023/01/28 11:31:17;;;;;;;23.67;21.70;;;4.90;99.90;;;;;;6272467;22;20621;-87
2023/01/28 11:33:49;;;;;;;23.70;21.43;;;5.00;99.90;;;;;;6272300;22;20433;-87
2023/01/28 11:36:18;;;;;;;24.67;22.13;;;4.90;99.90;;;;;;6271952;22;20468;-87
2023/01/28 11:38:50;;;;;;;23.63;21.67;;;4.90;99.90;;;;;;6272028;22;20418;-86
2023/01/28 11:41:18;;;;;;;23.73;21.40;;;5.00;99.90;;;;;;6272389;22;20788;-88
2023/01/28 11:43:45;;;;;;;23.33;21.33;;;5.10;99.90;;;;;;6272779;22;20484;-86
2023/01/28 11:46:22;;;;;;;23.10;21.10;;;5.10;99.90;;;;;;6272572;22;20415;-88
2023/01/28 11:48:56;;;;;;;22.97;21.03;;;4.90;99.90;;;;;;6271821;22;20445;-86
2023/01/28 11:51:36;;;;;;;23.27;20.90;;;4.90;99.90;;;;;;6271772;22;20446;-88
2023/01/28 11:54:19;;;;;;;21.97;19.90;;;4.80;99.90;;;;;;6271147;22;20414;-87
2023/01/28 11:57:15;;;;;;;21.63;19.70;;;4.70;99.90;;;;;;6271305;22;20426;-85
2023/01/28 12:00:09;;;;;;;23.00;20.70;;;4.70;99.90;;;;;;6271585;22;20415;-86
2023/01/28 12:02:50;;;;;;;22.87;20.77;;;4.80;99.90;;;;;;6270845;22;20415;-86
2023/01/28 12:05:45;;;;;;;24.80;22.50;;;4.80;99.90;;;;;;6271463;22;20614;-86
2023/01/28 12:08:22;;;;;;;23.80;21.70;;;4.60;99.90;;;;;;6246110;22;20438;-87
2023/01/28 12:11:01;;;;;;;23.60;21.23;;;4.60;99.90;;;;;;6272451;22;20442;-84
2023/01/28 12:13:39;;;;;;;23.03;21.10;;;4.50;99.90;;;;;;6271877;22;20545;-85
2023/01/28 12:16:16;;;;;;;24.47;22.03;;;4.50;99.90;;;;;;6272362;22;20535;-87
2023/01/28 12:19:31;;;;;;;23.03;20.77;;;4.60;99.90;;;;;;6271643;22;20403;-87
2023/01/28 12:22:17;;;;;;;25.80;23.20;;;4.60;99.90;;;;;;6117613;23;20403;-88
2023/01/28 12:24:59;;;;;;;23.67;21.37;;;4.70;99.90;;;;;;6271892;22;20442;-85
2023/01/28 12:27:36;;;;;;;24.43;22.13;;;4.70;99.90;;;;;;6273257;22;20403;-87
2023/01/28 12:30:19;;;;;;;26.20;23.73;;;4.70;99.90;;;;;;6273138;22;20395;-85
2023/01/28 12:32:59;;;;;;;26.00;23.37;;;4.70;99.90;;;;;;6272379;22;20758;-84
2023/01/28 12:35:57;;;;;;;27.50;24.87;;;4.60;99.90;;;;;;6272805;22;20956;-85
2023/01/28 12:38:35;;;;;;;24.77;22.33;;;4.60;99.90;;;;;;6271362;22;20430;-88
2023/01/28 12:41:07;;;;;;;24.20;21.80;;;4.40;99.90;;;;;;6272265;22;20750;-85
2023/01/28 12:43:43;;;;;;;24.47;22.20;;;4.60;99.90;;;;;;6271307;22;20438;-82
2023/01/28 12:46:17;;;;;;;21.80;19.90;;;4.70;99.90;;;;;;6273020;22;20417;-84
2023/01/28 12:48:47;;;;;;;24.97;22.43;;;4.40;99.90;;;;;;6272177;22;20411;-85
2023/01/28 12:51:16;;;;;;;26.10;23.30;;;4.50;99.90;;;;;;6272202;22;20439;-85
2023/01/28 12:53:49;;;;;;;26.10;23.43;;;4.60;99.90;;;;;;6272064;22;20913;-85
2023/01/28 12:56:18;;;;;;;23.07;21.10;;;4.60;99.90;;;;;;6272628;22;20446;-85
2023/01/28 12:58:49;;;;;;;23.17;21.27;;;4.60;99.90;;;;;;6271921;22;21056;-85
2023/01/28 13:01:21;;;;;;;24.50;22.03;;;4.70;99.90;;;;;;6272858;22;20762;-85
2023/01/28 13:03:54;;;;;;;22.67;20.73;;;4.80;99.90;;;;;;6272975;22;20784;-85
2023/01/28 13:06:27;;;;;;;21.73;19.73;;;4.80;99.90;;;;;;6275286;22;20440;-86
2023/01/28 13:09:00;;;;;;;21.37;19.57;;;4.80;99.90;;;;;;6273069;22;20766;-85
2023/01/28 13:11:33;;;;;;;22.93;19.23;;;4.80;99.90;;;;;;6272205;22;20466;-86
2023/01/28 13:14:01;;;;;;;20.80;19.20;;;4.80;99.90;;;;;;6271883;22;20467;-85
2023/01/28 13:16:28;;;;;;;20.73;18.97;;;4.70;99.90;;;;;;6272496;22;20407;-85
2023/01/28 13:19:05;;;;;;;20.63;19.13;;;4.50;99.90;;;;;;6272200;22;20429;-85
2023/01/28 13:21:35;;;;;;;19.40;17.70;;;4.40;99.90;;;;;;6272144;22;20452;-86
2023/01/28 13:24:21;;;;;;;19.50;18.00;;;4.50;99.90;;;;;;6272247;22;20736;-86
2023/01/28 13:26:49;;;;;;;18.80;17.00;;;4.50;99.90;;;;;;6271463;22;20406;-83
2023/01/28 13:29:30;;;;;;;19.30;17.80;;;4.50;99.90;;;;;;6271635;22;20407;-82
2023/01/28 13:31:59;;;;;;;20.73;19.03;;;4.40;99.90;;;;;;6272208;22;20477;-83
2023/01/28 13:34:32;;;;;;;19.43;18.03;;;4.40;99.90;;;;;;6272171;22;20494;-86
2023/01/28 13:37:03;;;;;;;18.40;16.90;;;4.30;99.90;;;;;;6272067;22;20415;-85
2023/01/28 13:39:34;;;;;;;19.60;18.30;;;4.10;99.90;;;;;;6272463;22;20399;-85
2023/01/28 13:42:22;;;;;;;18.83;17.33;;;4.10;99.90;;;;;;6272011;22;20480;-86
2023/01/28 13:44:49;;;;;;;18.60;17.40;;;4.00;99.90;;;;;;6271786;22;20418;-85
2023/01/28 13:47:24;;;;;;;19.90;18.50;;;4.00;99.90;;;;;;6271968;22;20685;-82
2023/01/28 13:49:56;;;;;;;19.27;17.80;;;3.90;99.90;;;;;;6272301;22;20766;-82
2023/01/28 13:52:27;;;;;;;20.77;19.07;;;3.90;99.90;;;;;;6272514;22;20501;-85
2023/01/28 13:55:01;;;;;;;18.53;17.13;;;4.00;99.90;;;;;;6271839;22;20431;-86
2023/01/28 13:57:55;;;;;;;21.37;19.57;;;3.90;99.90;;;;;;6271363;22;20407;-86
2023/01/28 14:00:28;;;;;;;21.47;19.77;;;4.00;99.90;;;;;;6272821;22;20407;-84
2023/01/28 14:03:28;;;;;;;20.40;18.80;;;3.90;99.90;;;;;;6272011;22;20866;-84
2023/01/28 14:06:25;;;;;;;19.47;17.80;;;3.90;99.90;;;;;;6271823;22;20745;-84
2023/01/28 14:09:22;;;;;;;19.90;18.23;;;4.10;99.90;;;;;;6259570;22;20422;-85
2023/01/28 14:12:10;;;;;;;18.80;17.10;;;4.00;99.90;;;;;;6271411;22;20469;-85
2023/01/28 14:15:09;;;;;;;19.37;17.87;;;4.10;99.90;;;;;;6271676;22;20399;-85
2023/01/28 14:17:42;;;;;;;18.50;17.10;;;4.10;99.90;;;;;;6210365;22;20739;-86
2023/01/28 14:20:18;;;;;;;18.43;16.70;;;4.40;99.90;;;;;;6271963;22;20414;-87
2023/01/28 14:22:45;;;;;;;19.77;18.17;;;4.50;99.90;;;;;;6272683;22;20407;-86
2023/01/28 14:25:15;;;;;;;17.63;16.33;;;4.60;99.90;;;;;;6273050;22;20457;-87
2023/01/28 14:27:48;;;;;;;18.07;16.77;;;4.60;99.90;;;;;;6272526;22;20411;-84
2023/01/28 14:30:23;;;;;;;19.13;17.77;;;4.40;99.90;;;;;;6273035;22;20494;-86
2023/01/28 14:32:51;;;;;;;17.93;16.70;;;4.30;99.90;;;;;;6273276;22;20486;-84
2023/01/28 14:35:27;;;;;;;19.30;17.80;;;4.40;99.90;;;;;;6271626;22;20445;-86
2023/01/28 14:37:54;;;;;;;17.67;16.23;;;4.30;99.90;;;;;;6271781;22;20415;-88
2023/01/28 14:40:22;;;;;;;18.77;16.97;;;4.40;99.90;;;;;;6271746;22;20944;-84
2023/01/28 14:42:54;;;;;;;17.97;16.60;;;4.40;99.90;;;;;;6270492;22;20402;-84
2023/01/28 14:45:34;;;;;;;17.37;15.97;;;4.40;99.90;;;;;;6270944;22;20410;-85
2023/01/28 14:48:20;;;;;;;17.00;15.80;;;4.20;99.90;;;;;;6272221;22;20438;-85
2023/01/28 14:51:10;;;;;;;17.63;16.37;;;4.20;99.90;;;;;;6272571;22;20464;-84
2023/01/28 14:53:56;;;;;;;18.60;16.77;;;4.20;99.90;;;;;;6200129;22;20433;-86
2023/01/28 14:56:34;;;;;;;18.03;16.83;;;4.20;99.90;;;;;;6273261;22;20920;-85
2023/01/28 14:59:10;;;;;;;19.23;17.63;;;4.30;99.90;;;;;;6272553;22;20437;-86
2023/01/28 15:01:44;;;;;;;17.90;16.50;;;4.30;99.90;;;;;;6272397;22;20517;-86
2023/01/28 15:04:25;;;;;;;19.40;18.10;;;4.20;99.90;;;;;;6271997;22;20406;-85
2023/01/28 15:06:55;;;;;;;17.87;16.77;;;4.20;99.90;;;;;;6272793;22;20431;-85
2023/01/28 15:09:22;;;;;;;15.93;14.77;;;4.10;99.90;;;;;;6272827;22;20414;-85
2023/01/28 15:11:53;;;;;;;15.90;14.80;;;4.10;99.90;;;;;;6271870;22;20446;-84
2023/01/28 15:14:27;;;;;;;16.47;15.10;;;4.10;99.90;;;;;;6271717;22;20437;-84
2023/01/28 15:16:55;;;;;;;17.57;16.33;;;4.10;99.90;;;;;;6272375;22;20407;-84
2023/01/28 15:19:27;;;;;;;18.80;17.30;;;4.10;99.90;;;;;;6272565;22;20894;-85
2023/01/28 15:21:56;;;;;;;17.73;16.40;;;4.10;99.90;;;;;;6272514;22;20418;-85
2023/01/28 15:24:23;;;;;;;16.77;15.53;;;4.10;99.90;;;;;;6272053;22;20426;-85
2023/01/28 15:26:50;;;;;;;17.20;16.00;;;4.10;99.90;;;;;;6272176;22;20399;-85
2023/01/28 15:29:26;;;;;;;17.47;16.07;;;4.00;99.90;;;;;;6271515;22;20403;-85
2023/01/28 15:31:53;;;;;;;17.23;16.03;;;4.10;99.90;;;;;;6271985;22;20987;-85
2023/01/28 15:34:20;;;;;;;17.73;16.63;;;4.10;99.90;;;;;;6271574;22;20433;-85
2023/01/28 15:36:48;;;;;;;15.53;14.63;;;4.00;99.90;;;;;;6271836;22;20561;-85
2023/01/28 15:39:17;;;;;;;16.20;15.10;;;4.00;99.90;;;;;;6271813;22;20446;-84
2023/01/28 15:41:46;;;;;;;18.60;17.10;;;3.80;99.90;;;;;;6271440;22;20414;-85
2023/01/28 15:44:18;;;;;;;19.43;17.83;;;3.80;99.90;;;;;;6271333;22;20453;-85
2023/01/28 15:46:46;;;;;;;17.03;15.83;;;3.90;99.90;;;;;;6271693;22;20403;-82
2023/01/28 15:49:17;;;;;;;16.10;15.00;;;3.90;99.90;;;;;;6271928;22;20415;-85
2023/01/28 15:51:50;;;;;;;15.40;14.30;;;3.90;99.90;;;;;;6271296;22;20947;-85
2023/01/28 15:54:17;;;;;;;20.77;19.07;;;4.00;99.90;;;;;;6272088;22;20706;-85
2023/01/28 15:57:07;;;;;;;19.13;17.50;;;3.90;99.90;;;;;;6270665;22;20433;-86
2023/01/28 15:59:34;;;;;;;17.87;16.60;;;3.90;99.90;;;;;;6268604;22;20202;-88
2023/01/28 16:02:20;;;;;;;17.83;16.53;;;3.80;99.90;;;;;;6271526;22;20683;-86
2023/01/28 16:04:57;;;;;;;17.73;16.30;;;3.80;99.90;;;;;;6272842;22;20648;-86
2023/01/28 16:07:24;;;;;;;17.37;16.17;;;3.80;99.90;;;;;;6272055;22;20822;-86
2023/01/28 16:09:53;;;;;;;17.07;16.07;;;3.80;99.90;;;;;;6271890;22;20414;-85
2023/01/28 16:12:21;;;;;;;17.70;16.50;;;3.80;99.90;;;;;;6271495;22;20447;-85
2023/01/28 16:14:51;;;;;;;18.53;17.13;;;3.80;99.90;;;;;;6271584;22;20464;-85
2023/01/28 16:17:22;;;;;;;17.63;16.37;;;3.80;99.90;;;;;;6271450;22;20778;-85
2023/01/28 16:19:50;;;;;;;18.97;17.77;;;3.90;99.90;;;;;;6272148;22;20411;-85
2023/01/28 16:22:21;;;;;;;17.97;16.57;;;3.90;99.90;;;;;;6271717;22;20437;-86
2023/01/28 16:24:52;;;;;;;17.80;16.57;;;3.90;99.90;;;;;;6272539;22;20407;-85
2023/01/28 16:27:22;;;;;;;16.37;15.13;;;4.00;99.90;;;;;;6273469;22;20795;-84
2023/01/28 16:29:49;;;;;;;15.57;14.47;;;4.00;99.90;;;;;;6275429;22;20727;-86
2023/01/28 16:32:29;;;;;;;15.73;14.80;;;4.00;99.90;;;;;;6273912;22;20977;-85
2023/01/28 16:34:56;;;;;;;17.97;16.50;;;3.90;99.90;;;;;;6273095;22;20438;-85
2023/01/28 16:37:22;;;;;;;15.17;14.27;;;3.80;99.90;;;;;;6273243;22;20413;-86
2023/01/28 16:39:49;;;;;;;15.03;14.13;;;3.90;99.90;;;;;;6272361;22;20418;-85
2023/01/28 16:42:16;;;;;;;15.27;14.37;;;3.80;99.90;;;;;;6272705;22;20411;-85
2023/01/28 16:44:42;;;;;;;16.10;15.00;;;3.80;99.90;;;;;;6272142;22;20407;-84
2023/01/28 16:47:10;;;;;;;16.77;15.50;;;3.80;99.90;;;;;;6273229;22;20403;-85
2023/01/28 16:49:38;;;;;;;16.20;15.10;;;3.90;99.90;;;;;;6273236;22;20897;-84
2023/01/28 16:52:06;;;;;;;16.80;15.63;;;3.90;99.90;;;;;;6271895;22;21399;-84
2023/01/28 16:54:34;;;;;;;17.47;16.27;;;3.80;99.90;;;;;;6272637;22;20430;-86
2023/01/28 16:57:00;;;;;;;17.73;16.20;;;3.90;99.90;;;;;;6271835;22;20457;-85
2023/01/28 16:59:27;;;;;;;17.50;16.40;;;4.00;99.90;;;;;;6271866;22;21109;-86
2023/01/28 17:01:54;;;;;;;15.20;14.20;;;4.00;99.90;;;;;;6272275;22;20410;-85
2023/01/28 17:04:20;;;;;;;16.20;15.17;;;3.90;99.90;;;;;;6271538;22;20891;-85
2023/01/28 17:06:49;;;;;;;14.13;13.20;;;3.70;99.90;;;;;;6271764;22;20751;-85
2023/01/28 17:09:15;;;;;;;15.07;14.00;;;3.60;99.90;;;;;;6271829;22;20973;-84
2023/01/28 17:11:42;;;;;;;15.90;14.70;;;3.60;99.90;;;;;;6272628;22;20411;-85
2023/01/28 17:14:10;;;;;;;16.73;15.63;;;3.50;99.90;;;;;;6271664;22;20458;-85
2023/01/28 17:16:36;;;;;;;17.63;16.43;;;3.50;99.90;;;;;;6272770;22;20898;-85
2023/01/28 17:19:03;;;;;;;17.10;15.83;;;3.50;99.90;;;;;;6272897;22;20491;-86
2023/01/28 17:21:30;;;;;;;17.00;15.60;;;3.70;99.90;;;;;;6272359;22;20600;-86
2023/01/28 17:23:59;;;;;;;18.10;16.57;;;3.60;99.90;;;;;;6271534;22;20407;-86
2023/01/28 17:26:27;;;;;;;18.63;17.33;;;3.60;99.90;;;;;;6272942;22;20407;-85
2023/01/28 17:28:55;;;;;;;17.50;16.20;;;3.50;99.90;;;;;;6273151;22;20465;-85
2023/01/28 17:31:22;;;;;;;19.00;17.10;;;3.50;99.90;;;;;;6272509;22;20411;-85
2023/01/28 17:33:53;;;;;;;17.93;16.43;;;3.50;99.90;;;;;;6272564;22;20443;-85
2023/01/28 17:36:20;;;;;;;17.20;16.00;;;3.60;99.90;;;;;;6272289;22;20411;-85
2023/01/28 17:38:47;;;;;;;17.60;16.20;;;3.40;99.90;;;;;;6271239;22;20818;-84
2023/01/28 17:41:16;;;;;;;17.73;16.40;;;3.30;99.90;;;;;;6271692;22;20410;-84
2023/01/28 17:43:43;;;;;;;17.27;15.87;;;3.40;99.90;;;;;;6271788;22;20407;-85
2023/01/28 17:46:13;;;;;;;16.70;15.30;;;3.40;99.90;;;;;;6272446;22;20948;-84
2023/01/28 17:48:41;;;;;;;15.43;14.33;;;3.40;99.90;;;;;;6271438;22;21040;-84
2023/01/28 17:51:08;;;;;;;17.63;16.53;;;3.40;99.90;;;;;;6271720;22;20407;-86
2023/01/28 17:53:35;;;;;;;17.10;16.03;;;3.30;99.90;;;;;;6271574;22;20853;-86
2023/01/28 17:56:02;;;;;;;16.80;15.80;;;3.30;99.90;;;;;;6271621;22;20777;-86
2023/01/28 17:58:30;;;;;;;17.83;16.73;;;3.40;99.90;;;;;;6271656;22;20429;-85
